createdAt,value
2023-11-30T00:00:44.589Z,10.63
2023-11-30T00:03:12.061Z,11.70
2023-11-30T00:05:39.342Z,14.38
2023-11-30T00:08:06.606Z,9.77
2023-11-30T00:10:33.985Z,10.73
2023-11-30T00:13:01.249Z,9.43
2023-11-30T00:15:28.628Z,6.43
2023-11-30T00:17:56.035Z,6.15
2023-11-30T00:20:23.398Z,9.15
2023-11-30T00:22:50.806Z,5.85
2023-11-30T00:25:18.139Z,8.07
2023-11-30T00:27:45.518Z,5.07
2023-11-30T00:30:13.288Z,10.43
2023-11-30T00:32:40.982Z,8.63
2023-11-30T00:35:08.612Z,6.50
2023-11-30T00:37:35.894Z,9.50
2023-11-30T00:40:05.291Z,8.50
2023-11-30T00:42:32.792Z,5.70
2023-11-30T00:45:01.334Z,9.82
2023-11-30T00:47:28.874Z,8.65
2023-11-30T00:49:56.319Z,8.43
2023-11-30T00:52:23.896Z,5.53
2023-11-30T00:54:51.112Z,6.47
2023-11-30T00:57:18.476Z,8.25
2023-11-30T00:59:45.819Z,7.20
2023-11-30T01:02:13.161Z,5.93
2023-11-30T01:04:43.490Z,8.27
2023-11-30T01:07:10.858Z,8.02
2023-11-30T01:09:41.234Z,6.88
2023-11-30T01:12:09.331Z,8.10
2023-11-30T01:14:36.744Z,10.20
2023-11-30T01:17:04.213Z,7.25
2023-11-30T01:19:31.615Z,8.02
2023-11-30T01:21:59.046Z,11.07
2023-11-30T01:24:26.611Z,6.80
2023-11-30T01:26:53.937Z,8.35
2023-11-30T01:29:21.268Z,5.65
2023-11-30T01:31:48.607Z,7.63
2023-11-30T01:34:16.052Z,6.93
2023-11-30T01:36:43.392Z,6.03
2023-11-30T01:39:10.883Z,5.20
2023-11-30T01:41:38.452Z,6.65
2023-11-30T01:44:06.343Z,10.73
2023-11-30T01:46:34.527Z,6.65
2023-11-30T01:49:02.037Z,5.93
2023-11-30T01:51:32.952Z,5.68
2023-11-30T01:54:01.963Z,6.22
2023-11-30T01:56:30.363Z,4.30
2023-11-30T01:58:58.168Z,4.15
2023-11-30T02:01:30.317Z,6.18
2023-11-30T02:04:03.392Z,6.15
2023-11-30T02:06:30.846Z,9.73
2023-11-30T02:08:58.337Z,2.65
2023-11-30T02:11:27.111Z,3.80
2023-11-30T02:13:55.690Z,5.25
2023-11-30T02:16:23.145Z,4.15
2023-11-30T02:18:51.448Z,5.50
2023-11-30T02:21:18.949Z,4.70
2023-11-30T02:23:47.808Z,5.30
2023-11-30T02:26:15.291Z,3.90
2023-11-30T02:28:42.594Z,1.83
2023-11-30T02:31:10.157Z,4.90
2023-11-30T02:33:37.806Z,5.22
2023-11-30T02:36:05.733Z,5.28
2023-11-30T02:38:32.967Z,4.57
2023-11-30T02:41:00.404Z,3.88
2023-11-30T02:43:31.108Z,5.13
2023-11-30T02:45:58.626Z,3.60
2023-11-30T02:48:25.943Z,4.80
2023-11-30T02:50:53.416Z,9.27
2023-11-30T02:53:20.805Z,7.07
2023-11-30T02:55:48.068Z,6.20
2023-11-30T02:58:15.463Z,3.45
2023-11-30T03:00:42.796Z,7.72
2023-11-30T03:03:10.262Z,4.47
2023-11-30T03:05:37.686Z,8.05
2023-11-30T03:08:05.316Z,3.50
2023-11-30T03:10:32.596Z,4.63
2023-11-30T03:13:00.021Z,3.85
2023-11-30T03:15:27.295Z,4.47
2023-11-30T03:17:55.616Z,3.47
2023-11-30T03:20:22.990Z,5.57
2023-11-30T03:22:50.328Z,4.20
2023-11-30T03:25:17.629Z,6.50
2023-11-30T03:27:45.017Z,5.35
2023-11-30T03:30:12.879Z,3.92
2023-11-30T03:32:40.384Z,5.10
2023-11-30T03:35:07.990Z,4.57
2023-11-30T03:37:37.308Z,4.55
2023-11-30T03:40:04.967Z,5.25
2023-11-30T03:42:32.429Z,3.78
2023-11-30T03:44:59.837Z,3.92
2023-11-30T03:47:27.131Z,2.35
2023-11-30T03:49:54.481Z,4.90
2023-11-30T03:52:21.995Z,5.13
2023-11-30T03:54:49.396Z,4.95
2023-11-30T03:57:17.092Z,3.63
2023-11-30T03:59:44.807Z,2.65
2023-11-30T04:02:12.590Z,2.08
2023-11-30T04:04:40.412Z,8.95
2023-11-30T04:07:07.690Z,5.55
2023-11-30T04:09:39.169Z,4.22
2023-11-30T04:12:06.921Z,3.65
2023-11-30T04:14:34.357Z,3.40
2023-11-30T04:17:04.482Z,4.55
2023-11-30T04:19:32.348Z,2.83
2023-11-30T04:21:59.576Z,3.78
2023-11-30T04:24:26.986Z,4.50
2023-11-30T04:26:54.904Z,4.57
2023-11-30T04:29:22.338Z,3.42
2023-11-30T04:31:49.802Z,4.35
2023-11-30T04:34:17.253Z,6.47
2023-11-30T04:36:44.727Z,6.53
2023-11-30T04:39:15.990Z,5.40
2023-11-30T04:41:43.361Z,4.22
2023-11-30T04:44:10.712Z,5.45
2023-11-30T04:46:38.812Z,3.95
2023-11-30T04:49:06.377Z,3.05
2023-11-30T04:51:34.280Z,6.93
2023-11-30T04:54:01.617Z,3.92
2023-11-30T04:56:29.279Z,5.03
2023-11-30T04:58:56.671Z,5.75
2023-11-30T05:01:24.068Z,8.35
2023-11-30T05:03:51.505Z,5.50
2023-11-30T05:06:19.063Z,6.05
2023-11-30T05:08:46.788Z,5.07
2023-11-30T05:11:14.283Z,5.78
2023-11-30T05:13:41.619Z,4.70
2023-11-30T05:16:09.440Z,6.60
2023-11-30T05:18:36.683Z,7.97
2023-11-30T05:21:04.612Z,8.88
2023-11-30T05:23:32.773Z,6.60
2023-11-30T05:26:00.398Z,5.28
2023-11-30T05:28:27.971Z,6.78
2023-11-30T05:30:55.363Z,4.45
2023-11-30T05:33:25.590Z,4.07
2023-11-30T05:35:53.077Z,5.10
2023-11-30T05:38:20.706Z,5.10
2023-11-30T05:40:48.351Z,5.50
2023-11-30T05:43:15.843Z,5.55
2023-11-30T05:45:43.180Z,5.82
2023-11-30T05:48:10.517Z,5.78
2023-11-30T05:50:37.989Z,6.85
2023-11-30T05:53:06.683Z,6.38
2023-11-30T05:55:34.026Z,4.38
2023-11-30T05:58:01.300Z,6.32
2023-11-30T06:00:28.598Z,7.35
2023-11-30T06:02:56.032Z,8.05
2023-11-30T06:05:23.417Z,8.23
2023-11-30T06:07:50.746Z,8.32
2023-11-30T06:10:18.220Z,5.90
2023-11-30T06:12:45.719Z,13.25
2023-11-30T06:15:13.326Z,7.22
2023-11-30T06:17:40.761Z,10.18
2023-11-30T06:20:11.848Z,10.73
2023-11-30T06:22:41.033Z,13.02
2023-11-30T06:25:09.338Z,10.02
2023-11-30T06:27:36.780Z,9.25
2023-11-30T06:30:04.409Z,13.00
2023-11-30T06:32:31.982Z,10.40
2023-11-30T06:34:59.246Z,9.18
2023-11-30T06:37:26.627Z,10.90
2023-11-30T06:39:53.871Z,13.15
2023-11-30T06:42:21.379Z,9.23
2023-11-30T06:44:52.082Z,12.25
2023-11-30T06:47:19.564Z,14.85
2023-11-30T06:49:48.605Z,9.98
2023-11-30T06:52:17.303Z,13.25
2023-11-30T06:54:44.527Z,7.97
2023-11-30T06:57:11.951Z,8.38
2023-11-30T06:59:39.388Z,9.52
2023-11-30T07:02:06.850Z,9.45
2023-11-30T07:04:34.354Z,10.43
2023-11-30T07:07:01.751Z,13.90
2023-11-30T07:09:29.817Z,11.25
2023-11-30T07:11:57.377Z,11.05
2023-11-30T07:14:24.811Z,8.25
2023-11-30T07:16:52.203Z,11.48
2023-11-30T07:19:19.557Z,16.17
2023-11-30T07:21:46.846Z,12.98
2023-11-30T07:24:14.486Z,10.15
2023-11-30T07:26:41.828Z,12.75
2023-11-30T07:29:11.160Z,9.98
2023-11-30T07:31:38.549Z,12.93
2023-11-30T07:34:06.347Z,14.43
2023-11-30T07:36:33.799Z,9.68
2023-11-30T07:39:01.164Z,16.15
2023-11-30T07:41:29.037Z,11.50
2023-11-30T07:43:56.640Z,12.07
2023-11-30T07:46:23.943Z,15.95
2023-11-30T07:48:51.383Z,16.55
2023-11-30T07:51:18.715Z,13.55
2023-11-30T07:53:46.065Z,12.20
2023-11-30T07:56:13.483Z,8.65
2023-11-30T07:58:42.301Z,17.15
2023-11-30T08:01:09.620Z,9.00
2023-11-30T08:03:37.123Z,9.38
2023-11-30T08:06:05.070Z,7.88
2023-11-30T08:08:32.630Z,8.40
2023-11-30T08:11:01.509Z,10.75
2023-11-30T08:13:31.179Z,16.52
2023-11-30T08:15:58.441Z,11.95
2023-11-30T08:18:26.324Z,13.05
2023-11-30T08:20:55.792Z,13.00
2023-11-30T08:23:23.532Z,8.43
2023-11-30T08:25:50.952Z,10.32
2023-11-30T08:28:18.405Z,14.95
2023-11-30T08:30:45.729Z,12.25
2023-11-30T08:33:13.309Z,10.98
2023-11-30T08:35:40.604Z,12.05
2023-11-30T08:38:08.006Z,9.38
2023-11-30T08:40:35.416Z,12.13
2023-11-30T08:43:02.698Z,11.93
2023-11-30T08:45:31.385Z,9.85
2023-11-30T08:47:58.658Z,9.15
2023-11-30T08:50:26.104Z,9.68
2023-11-30T08:52:53.396Z,13.00
2023-11-30T08:55:20.981Z,13.55
2023-11-30T08:57:48.328Z,12.00
2023-11-30T09:00:20.187Z,9.25
2023-11-30T09:02:49.288Z,14.02
2023-11-30T09:05:16.857Z,13.13
2023-11-30T09:07:44.305Z,13.65
2023-11-30T09:10:11.645Z,12.93
2023-11-30T09:12:39.071Z,11.55
2023-11-30T09:15:10.391Z,12.20
2023-11-30T09:17:37.987Z,15.15
2023-11-30T09:20:09.290Z,8.40
2023-11-30T09:22:36.907Z,13.98
2023-11-30T09:25:04.670Z,11.25
2023-11-30T09:27:32.663Z,9.55
2023-11-30T09:30:12.270Z,12.45
2023-11-30T09:32:39.963Z,11.52
2023-11-30T09:35:07.573Z,9.93
2023-11-30T09:37:35.138Z,12.05
2023-11-30T09:40:02.612Z,12.80
2023-11-30T09:42:30.767Z,12.77
2023-11-30T09:45:05.655Z,13.73
2023-11-30T09:47:33.193Z,12.05
2023-11-30T09:50:02.132Z,11.32
2023-11-30T09:52:30.394Z,14.25
2023-11-30T09:54:58.458Z,9.32
2023-11-30T09:57:26.222Z,7.82
2023-11-30T09:59:54.082Z,8.65
2023-11-30T10:02:23.768Z,9.50
2023-11-30T10:04:51.450Z,12.23
2023-11-30T10:07:19.546Z,10.13
2023-11-30T10:09:47.470Z,10.77
2023-11-30T10:12:15.416Z,9.35
2023-11-30T10:14:42.941Z,8.20
2023-11-30T10:17:10.668Z,9.70
2023-11-30T10:19:39.626Z,11.43
2023-11-30T10:22:07.189Z,10.02
2023-11-30T10:24:34.849Z,9.45
2023-11-30T10:27:07.308Z,8.38
2023-11-30T10:29:39.422Z,9.73
2023-11-30T10:32:08.824Z,6.65
2023-11-30T10:34:48.731Z,12.52
2023-11-30T10:37:21.193Z,12.38
2023-11-30T10:40:00.394Z,13.02
2023-11-30T10:42:29.431Z,10.55
2023-11-30T10:45:02.066Z,10.85
2023-11-30T10:47:31.084Z,12.93
2023-11-30T10:50:07.337Z,13.10
2023-11-30T10:52:36.615Z,6.97
2023-11-30T10:55:13.372Z,9.40
2023-11-30T10:57:45.175Z,8.30
2023-11-30T11:00:17.889Z,12.77
2023-11-30T11:02:48.794Z,10.40
2023-11-30T11:05:22.192Z,13.85
2023-11-30T11:07:51.803Z,13.55
2023-11-30T11:10:24.735Z,8.55
2023-11-30T11:15:24.220Z,9.82
2023-11-30T11:17:54.404Z,11.05
2023-11-30T11:20:30.060Z,11.27
2023-11-30T11:23:06.146Z,7.63
2023-11-30T11:25:39.309Z,8.32
2023-11-30T11:28:09.878Z,7.22
2023-11-30T11:30:43.438Z,8.55
2023-11-30T11:33:10.980Z,9.05
2023-11-30T11:35:38.326Z,10.35
2023-11-30T11:38:06.886Z,9.10
2023-11-30T11:40:34.288Z,11.88
2023-11-30T11:43:01.822Z,9.55
2023-11-30T11:45:29.416Z,11.43
2023-11-30T11:47:56.974Z,8.75
2023-11-30T11:50:24.243Z,9.15
2023-11-30T11:52:52.089Z,11.18
2023-11-30T11:55:24.080Z,7.18
2023-11-30T11:57:54.448Z,8.85
2023-11-30T12:00:28.511Z,10.00
2023-11-30T12:03:09.634Z,10.80
2023-11-30T12:05:47.873Z,11.63
2023-11-30T12:08:15.664Z,9.82
2023-11-30T12:10:45.024Z,9.27
2023-11-30T12:13:13.994Z,7.93
2023-11-30T12:15:42.164Z,11.13
2023-11-30T12:18:09.816Z,8.98
2023-11-30T12:20:37.345Z,7.80
2023-11-30T12:23:04.640Z,12.18
2023-11-30T12:25:32.161Z,6.35
2023-11-30T12:27:59.490Z,8.40
2023-11-30T12:30:26.946Z,6.80
2023-11-30T12:32:54.617Z,11.32
2023-11-30T12:35:21.989Z,8.10
2023-11-30T12:37:52.616Z,8.05
2023-11-30T12:40:20.142Z,10.02
2023-11-30T12:42:48.615Z,11.20
2023-11-30T12:45:15.970Z,8.25
2023-11-30T12:47:44.300Z,7.95
2023-11-30T12:50:12.653Z,8.27
2023-11-30T12:52:40.096Z,9.57
2023-11-30T12:55:08.320Z,10.82
2023-11-30T12:57:36.244Z,6.95
2023-11-30T13:00:04.679Z,9.38
2023-11-30T13:02:32.199Z,14.20
2023-11-30T13:04:59.663Z,11.90
2023-11-30T13:07:27.043Z,10.88
2023-11-30T13:09:54.595Z,9.70
2023-11-30T13:12:22.044Z,8.18
2023-11-30T13:14:49.745Z,12.32
2023-11-30T13:17:18.275Z,9.80
2023-11-30T13:19:48.045Z,8.60
2023-11-30T13:22:15.579Z,9.93
2023-11-30T13:24:43.767Z,10.27
2023-11-30T13:27:15.128Z,11.75
2023-11-30T13:29:42.557Z,11.63
2023-11-30T13:34:43.004Z,8.82
2023-11-30T13:37:10.485Z,11.90
2023-11-30T13:39:37.790Z,8.35
2023-11-30T13:42:05.346Z,11.40
2023-11-30T13:44:32.652Z,9.90
2023-11-30T13:47:00.167Z,8.02
2023-11-30T13:49:28.238Z,11.77
2023-11-30T13:51:56.209Z,12.80
2023-11-30T13:54:25.043Z,7.13
2023-11-30T13:56:52.573Z,7.80
2023-11-30T13:59:20.065Z,11.43
2023-11-30T14:01:47.630Z,9.10
2023-11-30T14:04:14.973Z,7.00
2023-11-30T14:06:42.751Z,8.00
2023-11-30T14:09:15.025Z,8.70
2023-11-30T14:11:42.966Z,10.32
2023-11-30T14:14:10.258Z,6.82
2023-11-30T14:16:38.965Z,8.73
2023-11-30T14:19:06.300Z,11.75
2023-11-30T14:21:33.735Z,8.30
2023-11-30T14:24:01.122Z,13.27
2023-11-30T14:26:28.592Z,12.82
2023-11-30T14:28:56.257Z,8.65
2023-11-30T14:31:23.932Z,11.43
2023-11-30T14:33:51.536Z,6.43
2023-11-30T14:36:19.222Z,13.65
2023-11-30T14:38:46.453Z,11.73
2023-11-30T14:41:13.804Z,13.02
2023-11-30T14:43:41.208Z,11.07
2023-11-30T14:46:09.005Z,11.65
2023-11-30T14:48:37.240Z,10.63
2023-11-30T14:51:05.070Z,14.77
2023-11-30T14:53:32.463Z,8.30
2023-11-30T14:55:59.728Z,12.52
2023-11-30T14:58:27.174Z,11.82
2023-11-30T15:00:54.477Z,12.65
2023-11-30T15:03:22.138Z,20.00
2023-11-30T15:05:49.638Z,8.77
2023-11-30T15:08:18.453Z,10.00
2023-11-30T15:10:49.618Z,7.05
2023-11-30T15:13:17.164Z,14.38
2023-11-30T15:15:45.797Z,13.98
2023-11-30T15:18:13.359Z,10.25
2023-11-30T15:20:41.483Z,13.77
2023-11-30T15:23:08.784Z,12.60
2023-11-30T15:25:36.206Z,12.20
2023-11-30T15:28:05.248Z,18.27
2023-11-30T15:30:32.935Z,15.95
2023-11-30T15:33:00.419Z,20.70
2023-11-30T15:35:29.526Z,18.85
2023-11-30T15:37:59.807Z,19.83
2023-11-30T15:40:27.270Z,16.80
2023-11-30T15:42:54.615Z,15.57
2023-11-30T15:45:27.644Z,17.30
2023-11-30T15:50:22.838Z,14.20
2023-11-30T15:52:50.214Z,13.73
2023-11-30T15:55:17.599Z,13.07
2023-11-30T15:57:47.583Z,14.35
2023-11-30T16:00:15.578Z,16.20
2023-11-30T16:02:46.772Z,14.70
2023-11-30T16:05:14.967Z,18.33
2023-11-30T16:07:42.815Z,16.70
2023-11-30T16:10:10.713Z,17.20
2023-11-30T16:12:38.161Z,23.92
2023-11-30T16:15:09.077Z,16.63
2023-11-30T16:17:36.416Z,13.38
2023-11-30T16:20:10.718Z,19.90
2023-11-30T16:22:39.652Z,19.25
2023-11-30T16:25:07.904Z,16.88
2023-11-30T16:27:35.556Z,20.08
2023-11-30T16:30:03.065Z,18.63
2023-11-30T16:32:30.404Z,24.45
2023-11-30T16:34:57.767Z,16.75
2023-11-30T16:37:25.652Z,21.98
2023-11-30T16:39:53.155Z,18.92
2023-11-30T16:42:20.445Z,23.63
2023-11-30T16:44:47.935Z,21.90
2023-11-30T16:47:15.652Z,23.52
2023-11-30T16:49:43.088Z,19.20
2023-11-30T16:52:10.486Z,21.42
2023-11-30T16:54:37.924Z,18.40
2023-11-30T16:57:05.457Z,19.58
2023-11-30T16:59:32.894Z,23.63
2023-11-30T17:02:00.299Z,19.02
2023-11-30T17:04:27.797Z,21.83
2023-11-30T17:06:55.270Z,23.95
2023-11-30T17:09:22.822Z,19.98
2023-11-30T17:11:50.163Z,23.20
2023-11-30T17:14:17.524Z,17.33
2023-11-30T17:16:45.078Z,21.25
2023-11-30T17:19:12.487Z,18.45
2023-11-30T17:22:02.685Z,23.73
2023-11-30T17:24:30.489Z,18.23
2023-11-30T17:26:57.881Z,21.88
2023-11-30T17:29:25.413Z,20.17
2023-11-30T17:31:52.941Z,18.60
2023-11-30T17:34:20.728Z,19.02
2023-11-30T17:36:48.873Z,20.95
2023-11-30T17:39:17.916Z,23.25
2023-11-30T17:41:45.951Z,26.02
2023-11-30T17:44:13.514Z,22.52
2023-11-30T17:46:45.611Z,26.75
2023-11-30T17:49:13.113Z,23.80
2023-11-30T17:51:40.401Z,18.05
2023-11-30T17:54:07.708Z,20.17
2023-11-30T17:56:35.066Z,20.95
2023-11-30T17:59:03.113Z,22.98
2023-11-30T18:01:30.847Z,22.30
2023-11-30T18:03:58.296Z,27.23
2023-11-30T18:06:27.179Z,22.60
2023-11-30T18:08:55.642Z,25.77
2023-11-30T18:11:23.129Z,26.08
2023-11-30T18:13:50.400Z,25.85
2023-11-30T18:16:17.865Z,29.73
2023-11-30T18:18:45.211Z,29.13
2023-11-30T18:21:13.148Z,25.50
2023-11-30T18:23:40.426Z,15.25
2023-11-30T18:26:08.038Z,23.40
2023-11-30T18:28:35.364Z,24.52
2023-11-30T18:31:12.245Z,28.98
2023-11-30T18:33:47.788Z,25.13
2023-11-30T18:36:15.121Z,22.80
2023-11-30T18:38:50.133Z,25.40
2023-11-30T18:41:21.004Z,23.50
2023-11-30T18:43:49.775Z,20.83
2023-11-30T18:46:17.367Z,27.35
2023-11-30T18:48:44.864Z,19.10
2023-11-30T18:51:12.426Z,22.85
2023-11-30T18:53:40.050Z,27.13
2023-11-30T18:56:07.893Z,25.05
2023-11-30T18:58:35.228Z,26.23
2023-11-30T19:01:02.534Z,21.38
2023-11-30T19:03:30.192Z,21.10
2023-11-30T19:05:58.018Z,26.88
2023-11-30T19:08:25.506Z,20.88
2023-11-30T19:10:52.995Z,23.77
2023-11-30T19:13:20.373Z,24.27
2023-11-30T19:15:51.125Z,21.38
2023-11-30T19:18:18.664Z,28.27
2023-11-30T19:20:46.023Z,31.15
2023-11-30T19:23:13.513Z,24.15
2023-11-30T19:25:42.546Z,20.50
2023-11-30T19:28:10.230Z,23.88
2023-11-30T19:30:45.977Z,19.52
2023-11-30T19:33:13.390Z,31.45
2023-11-30T19:35:40.745Z,18.25
2023-11-30T19:38:08.104Z,24.77
2023-11-30T19:40:35.385Z,21.70
2023-11-30T19:43:02.705Z,25.77
2023-11-30T19:45:30.088Z,26.50
2023-11-30T19:47:57.510Z,24.10
2023-11-30T19:50:25.128Z,20.05
2023-11-30T19:52:52.515Z,23.98
2023-11-30T19:55:19.828Z,21.67
2023-11-30T19:57:47.248Z,21.25
2023-11-30T20:00:15.187Z,22.08
2023-11-30T20:02:42.778Z,14.70
2023-11-30T20:05:12.782Z,23.33
2023-11-30T20:07:40.430Z,22.33
2023-11-30T20:10:08.227Z,14.90
2023-11-30T20:12:35.593Z,23.33
2023-11-30T20:15:03.317Z,16.55
2023-11-30T20:17:30.722Z,26.50
2023-11-30T20:19:57.992Z,18.10
2023-11-30T20:22:25.401Z,22.33
2023-11-30T20:24:52.704Z,16.88
2023-11-30T20:27:20.232Z,19.38
2023-11-30T20:29:47.604Z,19.00
2023-11-30T20:32:15.141Z,17.88
2023-11-30T20:34:42.810Z,19.65
2023-11-30T20:37:10.363Z,14.65
2023-11-30T20:39:37.727Z,18.02
2023-11-30T20:42:05.982Z,20.85
2023-11-30T20:44:33.475Z,15.60
2023-11-30T20:47:01.753Z,20.55
2023-11-30T20:49:29.072Z,20.08
2023-11-30T20:51:56.867Z,19.73
2023-11-30T20:54:24.876Z,16.98
2023-11-30T20:56:54.313Z,19.70
2023-11-30T20:59:21.582Z,19.73
2023-11-30T21:01:49.312Z,19.60
2023-11-30T21:04:16.800Z,21.27
2023-11-30T21:06:44.431Z,22.13
2023-11-30T21:09:11.937Z,25.45
2023-11-30T21:11:42.447Z,23.45
2023-11-30T21:14:11.649Z,20.88
2023-11-30T21:16:39.299Z,23.38
2023-11-30T21:19:07.021Z,19.73
2023-11-30T21:21:34.623Z,26.05
2023-11-30T21:24:02.530Z,21.25
2023-11-30T21:26:29.857Z,17.25
2023-11-30T21:28:57.212Z,26.58
2023-11-30T21:31:24.854Z,16.90
2023-11-30T21:33:52.416Z,25.30
2023-11-30T21:36:20.088Z,17.30
2023-11-30T21:38:47.553Z,23.75
2023-11-30T21:41:17.962Z,22.20
2023-11-30T21:43:45.446Z,22.48
2023-11-30T21:46:12.806Z,13.88
2023-11-30T21:48:40.612Z,16.15
2023-11-30T21:51:08.255Z,22.08
2023-11-30T21:53:36.331Z,21.85
2023-11-30T21:56:03.923Z,16.58
2023-11-30T21:58:32.785Z,18.58
2023-11-30T22:01:00.159Z,17.88
2023-11-30T22:03:27.987Z,25.63
2023-11-30T22:05:55.401Z,20.60
2023-11-30T22:08:22.775Z,27.02
2023-11-30T22:10:51.050Z,20.02
2023-11-30T22:13:18.480Z,20.80
2023-11-30T22:15:45.786Z,16.50
2023-11-30T22:18:13.171Z,17.92
2023-11-30T22:20:46.894Z,13.23
2023-11-30T22:23:14.582Z,23.40
2023-11-30T22:25:42.073Z,18.02
2023-11-30T22:28:09.504Z,21.90
2023-11-30T22:33:19.342Z,22.33
2023-11-30T22:35:46.725Z,13.77
2023-11-30T22:38:13.989Z,22.20
2023-11-30T22:40:41.298Z,17.30
2023-11-30T22:43:08.704Z,17.15
2023-11-30T22:45:36.068Z,19.40
2023-11-30T22:48:03.446Z,20.55
2023-11-30T22:50:30.836Z,18.05
2023-11-30T22:52:58.568Z,19.17
2023-11-30T22:55:25.992Z,14.38
2023-11-30T22:57:54.334Z,21.85
2023-11-30T23:00:25.422Z,20.38
2023-11-30T23:02:53.595Z,16.15
2023-11-30T23:05:21.368Z,20.85
2023-11-30T23:07:48.794Z,16.60
2023-11-30T23:10:18.344Z,18.77
2023-11-30T23:12:46.345Z,17.35
2023-11-30T23:15:14.218Z,26.48
2023-11-30T23:17:41.579Z,20.55
2023-11-30T23:20:09.607Z,17.77
2023-11-30T23:22:37.046Z,14.50
2023-11-30T23:25:04.785Z,15.82
2023-11-30T23:27:32.146Z,16.40
2023-11-30T23:29:59.641Z,22.30
2023-11-30T23:32:27.172Z,22.10
2023-11-30T23:34:54.582Z,19.40
2023-11-30T23:37:21.982Z,15.57
2023-11-30T23:39:49.893Z,16.50
2023-11-30T23:42:17.459Z,15.30
2023-11-30T23:44:44.744Z,17.83
2023-11-30T23:47:12.119Z,15.82
2023-11-30T23:49:39.516Z,19.45
2023-11-30T23:52:07.166Z,18.40
2023-11-30T23:54:34.486Z,18.17
2023-11-30T23:57:01.882Z,19.98
2023-11-30T23:59:29.177Z,16.35
